KLCK/LCK METAR and TAF weather

Enter ICAO airport designator
Station Type Date Time Source
KLCK METAR 2019/07/20 04:55 UTC NOAA

KLCK 200455Z AUTO 21004KT 10SM CLR 26/24 A2996 RMK AO2 T02550239


Station Type Date Time Source
KLCK Decoded METAR 2019/07/20 04:55 UTC NOAA

Rickenbacker Air National Guard Base, OH, United States (KLCK) 39-49N 082-56W
Jul 20, 2019 - 12:55 AM EDT / 2019.07.20 0455 UTC
Wind: from the SSW (210 degrees) at 5 MPH (4 KT):0
Visibility: 10 mile(s):0
Sky conditions: clear
Temperature: 77.9 F (25.5 C)
Dew Point: 75.0 F (23.9 C)
Relative Humidity: 90%
Pressure (altimeter): 29.96 in. Hg (1014 hPa)
ob: KLCK 200455Z AUTO 21004KT 10SM CLR 26/24 A2996 RMK AO2 T02550239
cycle: 5

Station Type Date Time Source
KLCK TAF 2019/07/19 18:36 UTC NOAA

TAF KLCK 191732Z 1918/2018 22011KT P6SM BKN035
TEMPO 1918/1919 BKN025
FM200000 21006KT P6SM SCT025
TEMPO 2009/2011 BKN025

Example: see airport list